Time;durP1;ratioP1;P1;durP2;ratioP2;P2;SDS_P1;SDS_P2;PMS_P1;PMS_P2;Temp;Humidity;BMP_temperature;BMP_pressure;BME280_temperature;BME280_humidity;BME280_pressure;Samples;Min_cycle;Max_cycle;Signal;HPM_P1;HPM_P2
2024/02/03 00:02:25;;;;;;;22.83;20.47;;;10.60;99.90;;;;;;5034347;28;20445;-78
2024/02/03 00:04:53;;;;;;;21.70;19.73;;;10.60;99.90;;;;;;5037038;28;20471;-77
2024/02/03 00:07:22;;;;;;;20.40;18.50;;;10.60;99.90;;;;;;5036784;28;20521;-78
2024/02/03 00:09:50;;;;;;;22.30;20.07;;;10.60;99.90;;;;;;5034958;28;20454;-77
2024/02/03 00:12:21;;;;;;;21.70;19.70;;;10.60;99.90;;;;;;5034489;28;20455;-77
2024/02/03 00:14:49;;;;;;;24.27;22.17;;;10.60;99.90;;;;;;5036063;28;20494;-78
2024/02/03 00:17:18;;;;;;;24.37;21.90;;;10.50;99.90;;;;;;5036271;28;20439;-78
2024/02/03 00:19:48;;;;;;;24.03;21.93;;;10.50;99.90;;;;;;5034307;28;20443;-77
2024/02/03 00:22:16;;;;;;;23.43;20.70;;;10.50;99.90;;;;;;5034157;28;20474;-77
2024/02/03 00:24:45;;;;;;;24.20;21.80;;;10.50;99.90;;;;;;5034365;28;20509;-78
2024/02/03 00:27:13;;;;;;;24.73;22.50;;;10.50;99.90;;;;;;5034978;28;20457;-78
2024/02/03 00:29:42;;;;;;;24.70;22.37;;;10.50;99.90;;;;;;5035067;28;20477;-78
2024/02/03 00:32:10;;;;;;;26.97;24.40;;;10.50;99.90;;;;;;5035931;28;20841;-76
2024/02/03 00:34:38;;;;;;;25.63;23.10;;;10.40;99.90;;;;;;5033888;28;20482;-78
2024/02/03 00:37:08;;;;;;;27.77;24.70;;;10.40;99.90;;;;;;5035150;28;20438;-77
2024/02/03 00:39:41;;;;;;;26.10;23.70;;;10.40;99.90;;;;;;5034249;28;20450;-78
2024/02/03 00:42:09;;;;;;;25.80;23.27;;;10.30;99.90;;;;;;5034899;28;20426;-77
2024/02/03 00:44:38;;;;;;;27.90;25.00;;;10.30;99.90;;;;;;5033598;28;20513;-77
2024/02/03 00:47:07;;;;;;;26.63;24.10;;;10.30;99.90;;;;;;5033565;28;20458;-78
2024/02/03 00:49:35;;;;;;;28.90;25.57;;;10.30;99.90;;;;;;5033054;28;20875;-77
2024/02/03 00:52:04;;;;;;;28.93;26.23;;;10.20;99.90;;;;;;5033270;28;20981;-77
2024/02/03 00:54:34;;;;;;;27.27;24.43;;;10.20;99.90;;;;;;5034223;28;20466;-77
2024/02/03 00:57:02;;;;;;;27.37;24.77;;;10.20;99.90;;;;;;5032729;28;20451;-77
2024/02/03 00:59:31;;;;;;;26.80;24.10;;;10.20;99.90;;;;;;5033745;28;20513;-77
2024/02/03 01:01:59;;;;;;;26.10;23.40;;;10.20;99.90;;;;;;5034116;28;20513;-77
2024/02/03 01:04:27;;;;;;;25.50;22.83;;;10.20;99.90;;;;;;5037600;28;20489;-77
2024/02/03 01:06:58;;;;;;;25.80;23.40;;;10.20;99.90;;;;;;5036662;28;20463;-77
2024/02/03 01:09:27;;;;;;;24.50;22.30;;;10.20;99.90;;;;;;5036426;28;20438;-77
2024/02/03 01:11:57;;;;;;;24.30;22.00;;;10.10;99.90;;;;;;5036725;28;20508;-77
2024/02/03 01:14:25;;;;;;;25.63;23.10;;;10.10;99.90;;;;;;5037185;28;20463;-77
2024/02/03 01:16:54;;;;;;;23.90;21.50;;;10.10;99.90;;;;;;5038376;28;20446;-76
2024/02/03 01:19:22;;;;;;;24.87;22.37;;;10.10;99.90;;;;;;5035855;28;20450;-77
2024/02/03 01:21:51;;;;;;;22.93;20.63;;;10.10;99.90;;;;;;5035470;28;20439;-77
2024/02/03 01:24:19;;;;;;;23.40;20.90;;;10.10;99.90;;;;;;5035786;28;20513;-77
2024/02/03 01:26:48;;;;;;;25.30;22.80;;;10.10;99.90;;;;;;5036095;28;20569;-77
2024/02/03 01:29:18;;;;;;;25.23;22.83;;;10.10;99.90;;;;;;5035823;28;20482;-77
2024/02/03 01:31:46;;;;;;;22.23;20.10;;;10.10;99.90;;;;;;5036192;28;21026;-77
2024/02/03 01:34:14;;;;;;;24.70;22.40;;;10.10;99.90;;;;;;5036728;28;20554;-78
2024/02/03 01:36:43;;;;;;;23.00;20.93;;;10.10;99.90;;;;;;5036480;28;20850;-77
2024/02/03 01:39:12;;;;;;;23.40;21.10;;;10.10;99.90;;;;;;5037417;28;20512;-77
2024/02/03 01:41:41;;;;;;;22.63;20.47;;;10.10;99.90;;;;;;5036937;28;20939;-77
2024/02/03 01:44:09;;;;;;;22.93;20.70;;;10.10;99.90;;;;;;5035482;28;20995;-77
2024/02/03 01:46:39;;;;;;;22.70;20.60;;;10.10;99.90;;;;;;5035164;28;21027;-77
2024/02/03 01:49:08;;;;;;;22.43;20.33;;;10.10;99.90;;;;;;5035189;28;21025;-77
2024/02/03 01:51:37;;;;;;;23.17;21.00;;;10.10;99.90;;;;;;5034927;28;20554;-77
2024/02/03 01:54:06;;;;;;;22.17;20.10;;;10.10;99.90;;;;;;5036250;28;20974;-76
2024/02/03 01:56:37;;;;;;;22.20;20.03;;;10.10;99.90;;;;;;5036053;28;20434;-77
2024/02/03 01:59:05;;;;;;;22.80;20.60;;;10.10;99.90;;;;;;5036415;28;20967;-77
2024/02/03 02:01:33;;;;;;;23.93;21.63;;;10.10;99.90;;;;;;5035319;28;20450;-77
2024/02/03 02:04:03;;;;;;;22.87;20.67;;;10.10;99.90;;;;;;5035515;28;21094;-77
2024/02/03 02:06:32;;;;;;;23.40;21.20;;;10.10;99.90;;;;;;5035497;28;20511;-77
2024/02/03 02:09:00;;;;;;;23.40;21.27;;;10.10;99.90;;;;;;5035390;28;20451;-77
2024/02/03 02:11:29;;;;;;;24.13;22.00;;;10.10;99.90;;;;;;5036434;28;20451;-77
2024/02/03 02:13:57;;;;;;;23.70;21.30;;;10.10;99.90;;;;;;5033035;28;20442;-76
2024/02/03 02:16:29;;;;;;;23.80;21.40;;;10.20;99.90;;;;;;5034404;28;20188;-77
2024/02/03 02:18:58;;;;;;;23.80;21.40;;;10.20;99.90;;;;;;5034569;28;20554;-77
2024/02/03 02:21:28;;;;;;;23.43;21.13;;;10.20;99.90;;;;;;5034718;28;20532;-77
2024/02/03 02:23:57;;;;;;;23.60;21.30;;;10.20;99.90;;;;;;5035344;28;20455;-77
2024/02/03 02:26:25;;;;;;;22.50;20.50;;;10.20;99.90;;;;;;5034111;28;20510;-77
2024/02/03 02:28:53;;;;;;;22.97;21.00;;;10.10;99.90;;;;;;5034501;28;20485;-77
2024/02/03 02:31:22;;;;;;;21.87;19.73;;;10.20;99.90;;;;;;5035761;28;20438;-77
2024/02/03 02:33:50;;;;;;;22.50;20.50;;;10.20;99.90;;;;;;5034055;28;20470;-76
2024/02/03 02:36:19;;;;;;;23.30;21.20;;;10.20;99.90;;;;;;5033966;28;20529;-77
2024/02/03 02:38:49;;;;;;;25.10;22.63;;;10.20;99.90;;;;;;5033778;28;20442;-77
2024/02/03 02:41:17;;;;;;;25.07;22.53;;;10.20;99.90;;;;;;5033786;28;20481;-77
2024/02/03 02:43:45;;;;;;;25.60;22.90;;;10.20;99.90;;;;;;5035727;28;20459;-77
2024/02/03 02:46:15;;;;;;;24.50;22.20;;;10.20;99.90;;;;;;5036827;28;20473;-78
2024/02/03 02:48:43;;;;;;;23.77;21.27;;;10.20;99.90;;;;;;5039083;28;20493;-77
2024/02/03 02:51:13;;;;;;;26.07;23.50;;;10.20;99.90;;;;;;5038950;28;20927;-77
2024/02/03 02:53:41;;;;;;;25.23;22.83;;;10.20;99.90;;;;;;5040326;28;20494;-77
2024/02/03 02:56:13;;;;;;;26.07;23.40;;;10.20;99.90;;;;;;5038905;28;20438;-77
2024/02/03 02:58:41;;;;;;;25.10;22.60;;;10.20;99.90;;;;;;5039285;28;20994;-77
2024/02/03 03:01:09;;;;;;;26.00;23.17;;;10.20;99.90;;;;;;5037684;28;20459;-77
2024/02/03 03:03:38;;;;;;;24.50;22.30;;;10.30;99.90;;;;;;5035677;28;20467;-77
2024/02/03 03:06:06;;;;;;;23.77;21.57;;;10.30;99.90;;;;;;5034304;28;20525;-78
2024/02/03 03:08:34;;;;;;;24.93;22.60;;;10.30;99.90;;;;;;5033922;28;20446;-78
2024/02/03 03:11:03;;;;;;;24.83;22.67;;;10.30;99.90;;;;;;5034144;28;20474;-78
2024/02/03 03:13:32;;;;;;;24.50;22.17;;;10.30;99.90;;;;;;5032880;28;21051;-77
2024/02/03 03:16:00;;;;;;;24.30;22.07;;;10.30;99.90;;;;;;5034344;28;20446;-77
2024/02/03 03:18:29;;;;;;;25.47;22.87;;;10.30;99.90;;;;;;5033965;28;20457;-77
2024/02/03 03:20:59;;;;;;;24.20;21.70;;;10.30;99.90;;;;;;5033401;28;20467;-77
2024/02/03 03:23:27;;;;;;;23.73;21.43;;;10.30;99.90;;;;;;5032909;28;20533;-77
2024/02/03 03:25:56;;;;;;;24.47;22.33;;;10.30;99.90;;;;;;5033076;28;20494;-77
2024/02/03 03:28:24;;;;;;;24.07;21.70;;;10.30;99.90;;;;;;5033045;28;20502;-77
2024/02/03 03:30:54;;;;;;;21.77;19.90;;;10.30;99.90;;;;;;5033496;28;20447;-77
2024/02/03 03:33:22;;;;;;;23.00;20.83;;;10.30;99.90;;;;;;5032824;28;20898;-76
2024/02/03 03:35:50;;;;;;;23.57;21.10;;;10.40;99.90;;;;;;5033392;28;20501;-77
2024/02/03 03:38:19;;;;;;;24.90;22.50;;;10.40;99.90;;;;;;5033371;28;20447;-77
2024/02/03 03:40:47;;;;;;;22.03;20.03;;;10.40;99.90;;;;;;5033521;28;20454;-77
2024/02/03 03:43:15;;;;;;;24.00;21.70;;;10.40;99.90;;;;;;5032753;28;20471;-77
2024/02/03 03:45:44;;;;;;;21.93;19.73;;;10.40;99.90;;;;;;5032554;28;20455;-77
2024/02/03 03:48:14;;;;;;;21.73;19.73;;;10.40;99.90;;;;;;5035046;28;20471;-77
2024/02/03 03:50:43;;;;;;;21.83;19.73;;;10.40;99.90;;;;;;5033313;28;20457;-77
2024/02/03 03:53:11;;;;;;;22.37;20.17;;;10.40;99.90;;;;;;5033325;28;20455;-78
2024/02/03 03:55:39;;;;;;;22.57;20.30;;;10.40;99.90;;;;;;5032970;28;20509;-77
2024/02/03 03:58:07;;;;;;;20.63;18.70;;;10.40;99.90;;;;;;5032577;28;20505;-77
2024/02/03 04:00:36;;;;;;;22.90;20.80;;;10.40;99.90;;;;;;5032659;28;21026;-77
2024/02/03 04:03:04;;;;;;;20.90;19.03;;;10.40;99.90;;;;;;5033073;28;20815;-77
2024/02/03 04:05:34;;;;;;;21.30;19.10;;;10.40;99.90;;;;;;5033428;28;20551;-77
2024/02/03 04:08:03;;;;;;;21.70;19.63;;;10.40;99.90;;;;;;5032700;28;20984;-77
2024/02/03 04:10:31;;;;;;;20.83;18.97;;;10.40;99.90;;;;;;5032751;28;20459;-77
2024/02/03 04:13:00;;;;;;;20.73;18.70;;;10.40;99.90;;;;;;5033767;28;20537;-77
2024/02/03 04:15:28;;;;;;;21.10;19.17;;;10.40;99.90;;;;;;5032376;28;20447;-77
2024/02/03 04:17:58;;;;;;;21.07;19.30;;;10.40;99.90;;;;;;5034145;28;20434;-76
2024/02/03 04:20:26;;;;;;;21.00;18.73;;;10.40;99.90;;;;;;5032807;28;20911;-77
2024/02/03 04:22:56;;;;;;;19.67;17.83;;;10.50;99.90;;;;;;5032894;28;20483;-77
2024/02/03 04:25:24;;;;;;;21.30;19.03;;;10.50;99.90;;;;;;5033015;28;20451;-77
2024/02/03 04:27:52;;;;;;;20.17;18.37;;;10.50;99.90;;;;;;5033368;28;20570;-77
2024/02/03 04:30:21;;;;;;;18.63;16.93;;;10.50;99.90;;;;;;5033382;28;20447;-77
2024/02/03 04:32:52;;;;;;;19.90;18.00;;;10.50;99.90;;;;;;5033111;28;20454;-77
2024/02/03 04:35:21;;;;;;;19.87;17.87;;;10.50;99.90;;;;;;5034131;28;20442;-77
2024/02/03 04:37:50;;;;;;;19.00;17.10;;;10.50;99.90;;;;;;5037884;28;20845;-78
2024/02/03 04:40:19;;;;;;;19.40;17.50;;;10.50;99.90;;;;;;5037006;28;20446;-77
2024/02/03 04:42:47;;;;;;;19.80;16.60;;;10.50;99.90;;;;;;5038666;28;20506;-77
2024/02/03 04:45:16;;;;;;;18.93;16.77;;;10.50;99.90;;;;;;5037170;28;20923;-77
2024/02/03 04:47:44;;;;;;;19.73;17.67;;;10.50;99.90;;;;;;5036893;28;20491;-78
2024/02/03 04:50:12;;;;;;;19.60;17.73;;;10.50;99.90;;;;;;5037184;28;20458;-77
2024/02/03 04:52:42;;;;;;;17.97;16.47;;;10.50;99.90;;;;;;5038683;28;20431;-77
2024/02/03 04:55:10;;;;;;;19.50;17.47;;;10.50;99.90;;;;;;5038192;28;20502;-77
2024/02/03 04:57:39;;;;;;;18.17;16.57;;;10.50;99.90;;;;;;5036856;28;20446;-77
2024/02/03 05:00:09;;;;;;;18.83;16.60;;;10.50;99.90;;;;;;5037743;28;20438;-78
2024/02/03 05:02:38;;;;;;;18.40;16.57;;;10.50;99.90;;;;;;5037227;28;20447;-77
2024/02/03 05:05:07;;;;;;;17.67;16.07;;;10.50;99.90;;;;;;5037093;28;20483;-77
2024/02/03 05:07:35;;;;;;;18.57;16.90;;;10.60;99.90;;;;;;5036774;28;20490;-77
2024/02/03 05:10:04;;;;;;;18.53;16.83;;;10.50;99.90;;;;;;5038283;28;20467;-77
2024/02/03 05:12:32;;;;;;;17.77;16.07;;;10.50;99.90;;;;;;5036387;28;20471;-77
2024/02/03 05:15:03;;;;;;;17.67;15.97;;;10.50;99.90;;;;;;5036677;28;20470;-77
2024/02/03 05:17:33;;;;;;;17.97;16.20;;;10.50;99.90;;;;;;5036645;28;20446;-78
2024/02/03 05:20:01;;;;;;;17.60;16.07;;;10.50;99.90;;;;;;5036288;28;20474;-77
2024/02/03 05:22:30;;;;;;;17.40;15.90;;;10.50;99.90;;;;;;5037058;28;20801;-78
2024/02/03 05:24:58;;;;;;;19.10;17.20;;;10.60;99.90;;;;;;5036163;28;20485;-77
2024/02/03 05:27:26;;;;;;;17.23;15.50;;;10.50;99.90;;;;;;5036017;28;20490;-77
2024/02/03 05:29:55;;;;;;;18.40;16.70;;;10.50;99.90;;;;;;5037549;28;20435;-78
2024/02/03 05:32:24;;;;;;;20.33;16.53;;;10.60;99.90;;;;;;5038195;28;20443;-78
2024/02/03 05:34:53;;;;;;;18.33;15.80;;;10.50;99.90;;;;;;5036057;28;20481;-77
2024/02/03 05:37:21;;;;;;;20.50;16.27;;;10.50;99.90;;;;;;5036063;28;20896;-77
2024/02/03 05:39:50;;;;;;;16.33;14.93;;;10.50;99.90;;;;;;5037480;28;20485;-77
2024/02/03 05:42:18;;;;;;;16.97;15.23;;;10.50;99.90;;;;;;5035966;28;20451;-77
2024/02/03 05:44:50;;;;;;;15.93;14.30;;;10.50;99.90;;;;;;5035863;28;20472;-77
2024/02/03 05:47:19;;;;;;;16.70;15.00;;;10.60;99.90;;;;;;5035206;28;20458;-77
2024/02/03 05:49:48;;;;;;;16.03;14.40;;;10.60;99.90;;;;;;5035573;28;20498;-77
2024/02/03 05:52:17;;;;;;;16.93;15.13;;;10.60;99.90;;;;;;5036780;28;20462;-77
2024/02/03 05:54:45;;;;;;;15.90;14.30;;;10.60;99.90;;;;;;5035640;28;20466;-77
2024/02/03 05:57:13;;;;;;;17.33;15.60;;;10.60;99.90;;;;;;5036734;28;20496;-77
2024/02/03 05:59:44;;;;;;;15.93;14.13;;;10.60;99.90;;;;;;5035839;28;20451;-77
2024/02/03 06:02:19;;;;;;;15.43;14.03;;;10.60;99.90;;;;;;5035541;28;20439;-77
2024/02/03 06:04:48;;;;;;;16.27;14.57;;;10.60;99.90;;;;;;5037196;28;20512;-77
2024/02/03 06:07:17;;;;;;;15.30;13.97;;;10.60;99.90;;;;;;5037611;28;20446;-78
2024/02/03 06:09:46;;;;;;;17.93;14.43;;;10.60;99.90;;;;;;5039768;28;20466;-78
2024/02/03 06:12:14;;;;;;;15.63;14.13;;;10.60;99.90;;;;;;5040360;28;20454;-78
2024/02/03 06:14:43;;;;;;;14.40;13.10;;;10.60;99.90;;;;;;5038773;28;20980;-78
2024/02/03 06:17:13;;;;;;;16.33;14.50;;;10.60;99.90;;;;;;5038095;28;20457;-78
2024/02/03 06:19:41;;;;;;;19.77;13.87;;;10.60;99.90;;;;;;5040094;28;20435;-78
2024/02/03 06:22:13;;;;;;;15.87;14.20;;;10.60;99.90;;;;;;5038326;28;20448;-78
2024/02/03 06:24:41;;;;;;;15.00;13.50;;;10.60;99.90;;;;;;5038421;28;20529;-78
2024/02/03 06:27:09;;;;;;;15.03;13.33;;;10.60;99.90;;;;;;5038132;28;20870;-78
2024/02/03 06:29:37;;;;;;;14.57;13.20;;;10.70;99.90;;;;;;5037782;28;20467;-78
2024/02/03 06:32:06;;;;;;;15.00;13.60;;;10.60;99.90;;;;;;5040140;28;20466;-78
2024/02/03 06:34:34;;;;;;;14.70;13.30;;;10.60;99.90;;;;;;5036794;28;20521;-78
2024/02/03 06:37:04;;;;;;;15.00;13.50;;;10.60;99.90;;;;;;5037402;28;20446;-78
2024/02/03 06:39:34;;;;;;;14.97;13.53;;;10.60;99.90;;;;;;5037212;28;20482;-78
2024/02/03 06:42:02;;;;;;;16.00;14.47;;;10.70;99.90;;;;;;5038052;28;20437;-77
2024/02/03 06:44:30;;;;;;;15.93;13.30;;;10.60;99.90;;;;;;5037576;28;20470;-78
2024/02/03 06:46:58;;;;;;;15.20;13.70;;;10.60;99.90;;;;;;5038490;28;20431;-77
2024/02/03 06:49:26;;;;;;;14.10;12.33;;;10.70;99.90;;;;;;5036832;28;20471;-77
2024/02/03 06:51:55;;;;;;;17.83;14.90;;;10.70;99.90;;;;;;5036596;28;20446;-78
2024/02/03 06:54:23;;;;;;;14.37;13.07;;;10.70;99.90;;;;;;5037857;28;20478;-78
2024/02/03 06:56:53;;;;;;;14.23;12.40;;;10.70;99.90;;;;;;5038228;28;21016;-78
2024/02/03 06:59:21;;;;;;;13.90;12.47;;;10.70;99.90;;;;;;5038173;28;20513;-78
2024/02/03 07:01:50;;;;;;;13.37;12.13;;;10.70;99.90;;;;;;5036940;28;20885;-78
2024/02/03 07:04:19;;;;;;;14.23;13.03;;;10.70;99.90;;;;;;5037606;28;20475;-79
2024/02/03 07:06:47;;;;;;;14.50;13.00;;;10.70;99.90;;;;;;5037579;28;20451;-78
2024/02/03 07:09:15;;;;;;;17.93;13.80;;;10.70;99.90;;;;;;5036019;28;20482;-78
2024/02/03 07:11:44;;;;;;;14.10;12.70;;;10.70;99.90;;;;;;5035676;28;20447;-77
2024/02/03 07:14:31;;;;;;;13.93;12.43;;;10.70;99.90;;;;;;5034809;28;20561;-78
2024/02/03 07:17:00;;;;;;;14.80;13.30;;;10.70;99.90;;;;;;5036014;28;20435;-78
2024/02/03 07:19:29;;;;;;;14.03;12.63;;;10.70;99.90;;;;;;5035902;28;20462;-78
2024/02/03 07:21:58;;;;;;;13.43;12.20;;;10.70;99.90;;;;;;5034112;28;20454;-77
2024/02/03 07:24:26;;;;;;;15.43;12.43;;;10.70;99.90;;;;;;5033560;28;20467;-77
2024/02/03 07:26:54;;;;;;;14.37;12.17;;;10.70;99.90;;;;;;5033250;28;20451;-77
2024/02/03 07:29:23;;;;;;;13.33;12.17;;;10.70;99.90;;;;;;5033764;28;20473;-77
2024/02/03 07:32:00;;;;;;;13.93;12.53;;;10.70;99.90;;;;;;5033431;28;20506;-77
2024/02/03 07:34:29;;;;;;;13.20;11.83;;;10.70;99.90;;;;;;5033232;28;20467;-78
2024/02/03 07:36:57;;;;;;;16.00;12.60;;;10.70;99.90;;;;;;5035495;28;20477;-77
2024/02/03 07:39:26;;;;;;;14.90;13.37;;;10.70;99.90;;;;;;5035373;28;20454;-78
2024/02/03 07:41:54;;;;;;;13.33;12.00;;;10.80;99.90;;;;;;5033979;28;20537;-77
2024/02/03 07:44:23;;;;;;;14.73;13.23;;;10.80;99.90;;;;;;5033230;28;20984;-78
2024/02/03 07:46:53;;;;;;;14.50;13.10;;;10.80;99.90;;;;;;5033090;28;20451;-77
2024/02/03 07:49:21;;;;;;;14.80;13.10;;;10.80;99.90;;;;;;5034254;28;20501;-78
2024/02/03 07:51:50;;;;;;;12.70;11.27;;;10.80;99.90;;;;;;5037148;28;20489;-78
2024/02/03 07:54:18;;;;;;;15.10;13.60;;;10.80;99.90;;;;;;5035888;28;20467;-78
2024/02/03 07:56:47;;;;;;;14.93;12.47;;;10.80;99.90;;;;;;5036834;28;20443;-78
2024/02/03 07:59:16;;;;;;;14.63;12.40;;;10.80;99.90;;;;;;5036813;28;20439;-78
2024/02/03 08:01:48;;;;;;;14.63;13.13;;;10.80;99.90;;;;;;5035398;28;20967;-78
2024/02/03 08:04:18;;;;;;;14.23;12.60;;;10.80;99.90;;;;;;5035277;28;20903;-77
2024/02/03 08:06:46;;;;;;;14.70;13.40;;;10.80;99.90;;;;;;5035732;28;20534;-78
2024/02/03 08:09:15;;;;;;;16.30;14.23;;;10.80;99.90;;;;;;5034518;28;20470;-78
2024/02/03 08:11:43;;;;;;;14.63;13.13;;;10.80;99.90;;;;;;5040733;28;20526;-79
2024/02/03 08:14:11;;;;;;;15.10;13.10;;;10.80;99.90;;;;;;5040558;28;20478;-78
2024/02/03 08:16:40;;;;;;;15.50;12.20;;;10.80;99.90;;;;;;5041233;28;20508;-78
2024/02/03 08:19:08;;;;;;;14.77;13.33;;;10.90;99.90;;;;;;5041291;28;20497;-78
2024/02/03 08:21:38;;;;;;;13.20;11.87;;;10.80;99.90;;;;;;5042311;28;20940;-77
2024/02/03 08:24:07;;;;;;;13.53;12.20;;;10.80;99.90;;;;;;5041534;28;20902;-77
2024/02/03 08:26:35;;;;;;;14.03;12.73;;;10.90;99.90;;;;;;5042349;28;20449;-78
2024/02/03 08:29:05;;;;;;;13.90;12.50;;;10.90;99.90;;;;;;5042154;28;20454;-78
2024/02/03 08:31:33;;;;;;;15.03;13.50;;;10.90;99.90;;;;;;5040819;28;20980;-77
2024/02/03 08:34:01;;;;;;;17.13;13.50;;;10.90;99.90;;;;;;5040560;28;20471;-77
2024/02/03 08:36:30;;;;;;;15.33;13.50;;;10.90;99.90;;;;;;5041092;28;20940;-77
2024/02/03 08:38:59;;;;;;;13.30;12.13;;;10.90;99.90;;;;;;5041857;28;20497;-78
2024/02/03 08:41:27;;;;;;;14.23;12.83;;;10.90;99.90;;;;;;5041792;28;20541;-77
2024/02/03 08:43:56;;;;;;;15.03;13.07;;;10.90;99.90;;;;;;5040584;28;20825;-78
2024/02/03 08:46:24;;;;;;;14.47;13.07;;;10.90;99.90;;;;;;5042109;28;20430;-77
2024/02/03 08:48:52;;;;;;;16.10;13.40;;;10.90;99.90;;;;;;5040181;28;20446;-77
2024/02/03 08:51:20;;;;;;;14.87;13.47;;;10.90;99.90;;;;;;5040109;28;20561;-77
2024/02/03 08:53:50;;;;;;;14.60;13.10;;;10.90;99.90;;;;;;5041830;28;20462;-77
2024/02/03 08:56:21;;;;;;;15.03;13.17;;;10.90;99.90;;;;;;5040278;28;20462;-78
2024/02/03 08:58:49;;;;;;;14.93;13.33;;;10.90;99.90;;;;;;5040249;28;20454;-77
2024/02/03 09:01:17;;;;;;;15.97;12.47;;;10.90;99.90;;;;;;5041796;28;20493;-78
2024/02/03 09:03:46;;;;;;;14.67;13.23;;;10.90;99.90;;;;;;5041371;28;20487;-78
2024/02/03 09:06:14;;;;;;;14.77;13.47;;;11.00;99.90;;;;;;5041652;28;20469;-78
2024/02/03 09:08:43;;;;;;;15.80;13.10;;;11.00;99.90;;;;;;5042801;28;20446;-78
2024/02/03 09:11:11;;;;;;;15.13;13.63;;;10.90;99.90;;;;;;5042361;28;20466;-78
2024/02/03 09:13:41;;;;;;;15.03;13.57;;;11.00;99.90;;;;;;5041836;28;20469;-78
2024/02/03 09:16:09;;;;;;;14.23;12.73;;;11.00;99.90;;;;;;5041706;28;20450;-77
2024/02/03 09:18:37;;;;;;;14.43;12.77;;;11.00;99.90;;;;;;5042679;28;20857;-78
2024/02/03 09:21:09;;;;;;;17.00;12.90;;;11.00;99.90;;;;;;5041762;28;20453;-78
2024/02/03 09:23:39;;;;;;;13.80;12.50;;;11.00;99.90;;;;;;5037923;28;20458;-78
2024/02/03 09:26:08;;;;;;;13.83;12.43;;;11.00;99.90;;;;;;5039855;28;20497;-78
2024/02/03 09:28:37;;;;;;;13.27;11.97;;;11.00;99.90;;;;;;5037813;28;20846;-78
2024/02/03 09:31:06;;;;;;;17.07;13.07;;;11.00;99.90;;;;;;5037083;28;20597;-77
2024/02/03 09:33:36;;;;;;;12.70;11.40;;;11.00;99.90;;;;;;5038260;28;20475;-77
2024/02/03 09:36:05;;;;;;;12.03;10.83;;;11.00;99.90;;;;;;5036938;28;20458;-78
2024/02/03 09:38:34;;;;;;;14.93;12.57;;;11.10;99.90;;;;;;5036694;28;20482;-78
2024/02/03 09:41:02;;;;;;;9.10;7.47;;;11.00;99.90;;;;;;5037654;28;20538;-78
2024/02/03 09:43:31;;;;;;;12.53;11.23;;;11.10;99.90;;;;;;5038708;28;20465;-78
2024/02/03 09:45:59;;;;;;;12.10;10.90;;;11.00;99.90;;;;;;5036924;28;20496;-78
2024/02/03 09:48:29;;;;;;;15.10;13.00;;;11.10;99.90;;;;;;5037308;28;20848;-77
2024/02/03 09:50:59;;;;;;;12.23;10.70;;;11.10;99.90;;;;;;5037707;28;20463;-78
2024/02/03 09:53:27;;;;;;;14.23;11.17;;;11.10;99.90;;;;;;5037784;28;20549;-77
2024/02/03 09:55:57;;;;;;;13.87;12.20;;;11.10;99.90;;;;;;5036342;28;20494;-77
2024/02/03 09:58:25;;;;;;;12.40;11.23;;;11.10;99.90;;;;;;5036274;28;20435;-77
2024/02/03 10:00:54;;;;;;;14.53;11.20;;;11.10;99.90;;;;;;5036517;28;20825;-77
2024/02/03 10:03:23;;;;;;;13.27;11.60;;;11.20;99.90;;;;;;5036613;28;20463;-77
2024/02/03 10:06:00;;;;;;;13.47;11.20;;;11.20;99.90;;;;;;5036648;28;20513;-78
2024/02/03 10:08:28;;;;;;;12.77;11.47;;;11.20;99.90;;;;;;5037668;28;20517;-77
2024/02/03 10:10:57;;;;;;;13.33;11.57;;;11.20;99.90;;;;;;5036219;28;20482;-78
2024/02/03 10:13:25;;;;;;;12.83;11.23;;;11.20;99.90;;;;;;5035832;28;20479;-77
2024/02/03 10:16:02;;;;;;;11.97;10.27;;;11.20;99.90;;;;;;5035936;28;20505;-77
2024/02/03 10:18:33;;;;;;;12.30;11.00;;;11.20;99.90;;;;;;5036448;28;20526;-77
2024/02/03 10:21:04;;;;;;;13.87;10.60;;;11.20;99.90;;;;;;5036406;28;20443;-77
2024/02/03 10:23:33;;;;;;;15.03;10.47;;;11.10;99.90;;;;;;5036288;28;20470;-78
2024/02/03 10:26:02;;;;;;;12.13;11.03;;;11.10;99.90;;;;;;5036359;28;20868;-78
2024/02/03 10:28:30;;;;;;;11.37;10.27;;;11.20;99.90;;;;;;5036649;28;20451;-78
2024/02/03 10:31:04;;;;;;;14.70;12.47;;;11.20;99.90;;;;;;5035800;28;20471;-78
2024/02/03 10:33:33;;;;;;;14.60;10.40;;;11.20;99.90;;;;;;5036211;28;20458;-78
2024/02/03 10:36:03;;;;;;;11.93;10.77;;;11.20;99.90;;;;;;5035256;28;20477;-78
2024/02/03 10:38:32;;;;;;;13.37;10.83;;;11.20;99.90;;;;;;5035273;28;20439;-78
2024/02/03 10:41:04;;;;;;;12.63;10.60;;;11.20;99.90;;;;;;5035872;28;20448;-78
2024/02/03 10:43:35;;;;;;;11.73;10.63;;;11.20;99.90;;;;;;5037181;28;20461;-77
2024/02/03 10:46:06;;;;;;;10.73;9.63;;;11.20;99.90;;;;;;5035742;28;20447;-77
2024/02/03 10:48:37;;;;;;;11.17;10.03;;;11.20;99.90;;;;;;5036858;28;20781;-77
2024/02/03 10:51:09;;;;;;;12.10;9.87;;;11.20;99.90;;;;;;5037087;28;20463;-77
2024/02/03 10:53:44;;;;;;;11.60;10.50;;;11.20;99.90;;;;;;5036318;28;20478;-78
2024/02/03 10:56:15;;;;;;;11.63;10.43;;;11.30;99.90;;;;;;5036754;28;20451;-78
2024/02/03 10:58:43;;;;;;;12.30;10.10;;;11.20;99.90;;;;;;5039089;28;20443;-78
2024/02/03 11:01:15;;;;;;;12.10;10.23;;;11.20;99.90;;;;;;5038528;28;20884;-78
2024/02/03 11:03:44;;;;;;;11.53;9.67;;;11.20;99.90;;;;;;5037408;28;20569;-78
2024/02/03 11:06:12;;;;;;;10.70;8.97;;;11.20;99.90;;;;;;5038426;28;20915;-78
2024/02/03 11:08:44;;;;;;;11.70;9.97;;;11.20;99.90;;;;;;5038941;28;20431;-77
2024/02/03 11:11:12;;;;;;;13.13;8.60;;;11.30;99.90;;;;;;5036612;28;20501;-78
2024/02/03 11:13:42;;;;;;;12.90;9.40;;;11.30;99.90;;;;;;5036524;28;20596;-78
2024/02/03 11:16:10;;;;;;;9.93;8.80;;;11.30;99.90;;;;;;5038602;28;20451;-78
2024/02/03 11:18:42;;;;;;;11.90;9.13;;;11.30;99.90;;;;;;5036605;28;20896;-78
2024/02/03 11:21:10;;;;;;;14.93;9.23;;;11.30;99.90;;;;;;5036968;28;20534;-78
2024/02/03 11:23:39;;;;;;;11.90;9.10;;;11.30;99.90;;;;;;5036379;28;20474;-78
2024/02/03 11:26:10;;;;;;;13.83;9.40;;;11.30;99.90;;;;;;5036671;28;20459;-78
2024/02/03 11:28:38;;;;;;;9.83;8.80;;;11.30;99.90;;;;;;5037209;28;20488;-78
2024/02/03 11:31:06;;;;;;;10.73;8.67;;;11.30;99.90;;;;;;5036503;28;20497;-78
2024/02/03 11:33:45;;;;;;;10.77;8.77;;;11.30;99.90;;;;;;5035721;28;20470;-78
2024/02/03 11:36:15;;;;;;;10.40;8.40;;;11.30;99.90;;;;;;5036065;28;20439;-78
2024/02/03 11:38:46;;;;;;;10.60;9.50;;;11.30;99.90;;;;;;5035655;28;20447;-78
2024/02/03 11:41:17;;;;;;;11.00;8.57;;;11.30;99.90;;;;;;5035735;28;20534;-78
2024/02/03 11:43:46;;;;;;;9.60;8.47;;;11.30;99.90;;;;;;5035566;28;20475;-76
2024/02/03 11:46:14;;;;;;;13.53;8.80;;;11.30;99.90;;;;;;5034783;28;20486;-78
2024/02/03 11:48:45;;;;;;;9.93;8.97;;;11.30;99.90;;;;;;5035602;28;20952;-77
2024/02/03 11:51:15;;;;;;;11.67;8.97;;;11.30;99.90;;;;;;5035397;28;21003;-78
2024/02/03 11:53:44;;;;;;;9.30;8.27;;;11.30;99.90;;;;;;5035430;28;20536;-78
2024/02/03 11:56:12;;;;;;;10.43;8.50;;;11.30;99.90;;;;;;5035133;28;20465;-78
2024/02/03 11:58:42;;;;;;;10.67;9.00;;;11.30;99.90;;;;;;5034923;28;20447;-78
2024/02/03 12:01:11;;;;;;;13.63;9.10;;;11.30;99.90;;;;;;5034850;28;20534;-78
2024/02/03 12:03:40;;;;;;;12.23;9.80;;;11.30;99.90;;;;;;5034601;28;20838;-78
2024/02/03 12:06:08;;;;;;;9.93;9.03;;;11.20;99.90;;;;;;5035188;28;20541;-77
2024/02/03 12:08:37;;;;;;;12.27;9.60;;;11.20;99.90;;;;;;5034885;28;20443;-77
2024/02/03 12:11:05;;;;;;;10.27;8.90;;;11.20;99.90;;;;;;5034636;28;20467;-77
2024/02/03 12:13:38;;;;;;;11.93;8.17;;;11.30;99.90;;;;;;5034354;28;21015;-78
2024/02/03 12:16:09;;;;;;;12.70;8.60;;;11.30;99.90;;;;;;5036450;28;20558;-79
2024/02/03 12:18:38;;;;;;;10.57;9.50;;;11.30;99.90;;;;;;5036153;28;20447;-78
2024/02/03 12:21:07;;;;;;;11.83;8.93;;;11.30;99.90;;;;;;5036251;28;20449;-78
2024/02/03 12:23:36;;;;;;;9.27;8.30;;;11.30;99.90;;;;;;5035885;28;20471;-77
2024/02/03 12:26:04;;;;;;;13.50;8.43;;;11.30;99.90;;;;;;5036516;28;20463;-78
2024/02/03 12:28:33;;;;;;;13.63;8.60;;;11.30;99.90;;;;;;5036116;28;20458;-78
2024/02/03 12:31:02;;;;;;;10.60;8.30;;;11.30;99.90;;;;;;5036979;28;20443;-78
2024/02/03 12:33:32;;;;;;;9.30;7.87;;;11.30;99.90;;;;;;5035908;28;20462;-77
2024/02/03 12:36:01;;;;;;;11.80;8.30;;;11.40;99.90;;;;;;5036899;28;20454;-77
2024/02/03 12:38:29;;;;;;;8.90;7.67;;;11.40;99.90;;;;;;5035921;28;20496;-78